sensor_id;sensor_type;location;lat;lon;timestamp;P1;durP1;ratioP1;P2;durP2;ratioP2
47053;SDS011;32811;52.382;5.270;2024-01-07T00:02:19;6.75;;;6.05;;
47053;SDS011;32811;52.382;5.270;2024-01-07T00:04:46;7.72;;;6.93;;
47053;SDS011;32811;52.382;5.270;2024-01-07T00:07:13;6.55;;;5.90;;
47053;SDS011;32811;52.382;5.270;2024-01-07T00:09:41;9.00;;;6.47;;
47053;SDS011;32811;52.382;5.270;2024-01-07T00:12:08;8.13;;;7.05;;
47053;SDS011;32811;52.382;5.270;2024-01-07T00:14:35;8.15;;;6.10;;
47053;SDS011;32811;52.382;5.270;2024-01-07T00:17:02;8.65;;;7.43;;
47053;SDS011;32811;52.382;5.270;2024-01-07T00:19:28;9.30;;;6.93;;
47053;SDS011;32811;52.382;5.270;2024-01-07T00:21:57;7.70;;;5.93;;
47053;SDS011;32811;52.382;5.270;2024-01-07T00:24:24;7.18;;;6.32;;
47053;SDS011;32811;52.382;5.270;2024-01-07T00:26:57;8.55;;;6.28;;
47053;SDS011;32811;52.382;5.270;2024-01-07T00:29:23;7.85;;;6.18;;
47053;SDS011;32811;52.382;5.270;2024-01-07T00:31:50;6.95;;;5.63;;
47053;SDS011;32811;52.382;5.270;2024-01-07T00:34:17;9.85;;;5.53;;
47053;SDS011;32811;52.382;5.270;2024-01-07T00:36:44;6.78;;;6.07;;
47053;SDS011;32811;52.382;5.270;2024-01-07T00:39:11;7.07;;;5.68;;
47053;SDS011;32811;52.382;5.270;2024-01-07T00:41:37;7.30;;;6.00;;
47053;SDS011;32811;52.382;5.270;2024-01-07T00:44:04;6.25;;;4.95;;
47053;SDS011;32811;52.382;5.270;2024-01-07T00:46:30;8.40;;;6.53;;
47053;SDS011;32811;52.382;5.270;2024-01-07T00:48:57;7.75;;;5.55;;
47053;SDS011;32811;52.382;5.270;2024-01-07T00:51:24;7.15;;;5.38;;
47053;SDS011;32811;52.382;5.270;2024-01-07T00:53:50;7.05;;;6.15;;
47053;SDS011;32811;52.382;5.270;2024-01-07T00:56:17;7.78;;;6.30;;
47053;SDS011;32811;52.382;5.270;2024-01-07T00:58:44;8.65;;;6.60;;
47053;SDS011;32811;52.382;5.270;2024-01-07T01:01:10;7.05;;;5.93;;
47053;SDS011;32811;52.382;5.270;2024-01-07T01:03:37;7.35;;;6.35;;
47053;SDS011;32811;52.382;5.270;2024-01-07T01:06:04;7.88;;;6.10;;
47053;SDS011;32811;52.382;5.270;2024-01-07T01:08:31;8.43;;;5.47;;
47053;SDS011;32811;52.382;5.270;2024-01-07T01:10:57;7.88;;;6.07;;
47053;SDS011;32811;52.382;5.270;2024-01-07T01:13:24;9.13;;;7.22;;
47053;SDS011;32811;52.382;5.270;2024-01-07T01:15:51;8.43;;;6.28;;
47053;SDS011;32811;52.382;5.270;2024-01-07T01:18:18;7.78;;;6.63;;
47053;SDS011;32811;52.382;5.270;2024-01-07T01:20:45;8.57;;;6.38;;
47053;SDS011;32811;52.382;5.270;2024-01-07T01:23:12;8.50;;;6.40;;
47053;SDS011;32811;52.382;5.270;2024-01-07T01:25:38;7.53;;;6.57;;
47053;SDS011;32811;52.382;5.270;2024-01-07T01:28:06;7.43;;;6.22;;
47053;SDS011;32811;52.382;5.270;2024-01-07T01:30:32;10.38;;;7.32;;
47053;SDS011;32811;52.382;5.270;2024-01-07T01:33:02;10.95;;;7.80;;
47053;SDS011;32811;52.382;5.270;2024-01-07T01:35:29;10.05;;;8.40;;
47053;SDS011;32811;52.382;5.270;2024-01-07T01:37:56;8.75;;;7.25;;
47053;SDS011;32811;52.382;5.270;2024-01-07T01:40:23;10.35;;;7.72;;
47053;SDS011;32811;52.382;5.270;2024-01-07T01:42:49;11.07;;;7.63;;
47053;SDS011;32811;52.382;5.270;2024-01-07T01:45:16;10.95;;;7.95;;
47053;SDS011;32811;52.382;5.270;2024-01-07T01:47:43;9.48;;;7.05;;
47053;SDS011;32811;52.382;5.270;2024-01-07T01:50:10;9.07;;;7.32;;
47053;SDS011;32811;52.382;5.270;2024-01-07T01:52:38;9.95;;;7.10;;
47053;SDS011;32811;52.382;5.270;2024-01-07T01:55:05;9.73;;;7.25;;
47053;SDS011;32811;52.382;5.270;2024-01-07T01:57:33;10.65;;;8.05;;
47053;SDS011;32811;52.382;5.270;2024-01-07T02:00:03;9.25;;;7.10;;
47053;SDS011;32811;52.382;5.270;2024-01-07T02:02:31;9.40;;;7.20;;
47053;SDS011;32811;52.382;5.270;2024-01-07T02:05:01;11.50;;;7.13;;
47053;SDS011;32811;52.382;5.270;2024-01-07T02:07:29;8.98;;;7.55;;
47053;SDS011;32811;52.382;5.270;2024-01-07T02:09:57;11.93;;;7.45;;
47053;SDS011;32811;52.382;5.270;2024-01-07T02:12:23;9.93;;;7.30;;
47053;SDS011;32811;52.382;5.270;2024-01-07T02:14:50;10.80;;;7.18;;
47053;SDS011;32811;52.382;5.270;2024-01-07T02:17:17;11.00;;;7.43;;
47053;SDS011;32811;52.382;5.270;2024-01-07T02:19:45;10.65;;;7.43;;
47053;SDS011;32811;52.382;5.270;2024-01-07T02:22:12;9.93;;;7.45;;
47053;SDS011;32811;52.382;5.270;2024-01-07T02:24:38;10.50;;;8.45;;
47053;SDS011;32811;52.382;5.270;2024-01-07T02:27:06;9.20;;;6.95;;
47053;SDS011;32811;52.382;5.270;2024-01-07T02:29:33;11.02;;;8.07;;
47053;SDS011;32811;52.382;5.270;2024-01-07T02:31:59;12.15;;;7.90;;
47053;SDS011;32811;52.382;5.270;2024-01-07T02:34:26;12.40;;;8.70;;
47053;SDS011;32811;52.382;5.270;2024-01-07T02:36:53;11.18;;;7.68;;
47053;SDS011;32811;52.382;5.270;2024-01-07T02:39:20;11.15;;;8.63;;
47053;SDS011;32811;52.382;5.270;2024-01-07T02:41:46;9.98;;;7.45;;
47053;SDS011;32811;52.382;5.270;2024-01-07T02:44:13;11.00;;;8.57;;
47053;SDS011;32811;52.382;5.270;2024-01-07T02:46:40;12.50;;;8.07;;
47053;SDS011;32811;52.382;5.270;2024-01-07T02:49:07;8.63;;;6.97;;
47053;SDS011;32811;52.382;5.270;2024-01-07T02:51:33;8.70;;;7.45;;
47053;SDS011;32811;52.382;5.270;2024-01-07T02:54:00;8.77;;;7.28;;
47053;SDS011;32811;52.382;5.270;2024-01-07T02:56:27;8.85;;;7.15;;
47053;SDS011;32811;52.382;5.270;2024-01-07T02:58:53;9.60;;;7.40;;
47053;SDS011;32811;52.382;5.270;2024-01-07T03:01:21;10.18;;;8.23;;
47053;SDS011;32811;52.382;5.270;2024-01-07T03:03:49;8.82;;;6.25;;
47053;SDS011;32811;52.382;5.270;2024-01-07T03:06:17;10.77;;;6.85;;
47053;SDS011;32811;52.382;5.270;2024-01-07T03:08:43;9.35;;;6.65;;
47053;SDS011;32811;52.382;5.270;2024-01-07T03:11:10;8.10;;;7.15;;
47053;SDS011;32811;52.382;5.270;2024-01-07T03:13:37;9.82;;;7.10;;
47053;SDS011;32811;52.382;5.270;2024-01-07T03:16:04;9.63;;;7.30;;
47053;SDS011;32811;52.382;5.270;2024-01-07T03:18:31;8.10;;;6.32;;
47053;SDS011;32811;52.382;5.270;2024-01-07T03:20:58;9.32;;;5.57;;
47053;SDS011;32811;52.382;5.270;2024-01-07T03:23:24;9.35;;;7.70;;
47053;SDS011;32811;52.382;5.270;2024-01-07T03:25:51;11.13;;;7.95;;
47053;SDS011;32811;52.382;5.270;2024-01-07T03:28:18;13.00;;;8.55;;
47053;SDS011;32811;52.382;5.270;2024-01-07T03:30:44;10.00;;;8.13;;
47053;SDS011;32811;52.382;5.270;2024-01-07T03:33:11;9.45;;;6.55;;
47053;SDS011;32811;52.382;5.270;2024-01-07T03:35:38;11.57;;;7.32;;
47053;SDS011;32811;52.382;5.270;2024-01-07T03:38:05;10.50;;;7.18;;
47053;SDS011;32811;52.382;5.270;2024-01-07T03:40:31;11.82;;;7.43;;
47053;SDS011;32811;52.382;5.270;2024-01-07T03:42:58;10.07;;;7.80;;
47053;SDS011;32811;52.382;5.270;2024-01-07T03:45:24;13.23;;;8.25;;
47053;SDS011;32811;52.382;5.270;2024-01-07T03:47:52;13.00;;;7.75;;
47053;SDS011;32811;52.382;5.270;2024-01-07T03:50:19;8.45;;;7.00;;
47053;SDS011;32811;52.382;5.270;2024-01-07T03:52:45;13.13;;;9.20;;
47053;SDS011;32811;52.382;5.270;2024-01-07T03:55:12;9.65;;;7.93;;
47053;SDS011;32811;52.382;5.270;2024-01-07T03:57:39;9.70;;;6.75;;
47053;SDS011;32811;52.382;5.270;2024-01-07T04:00:06;9.73;;;7.90;;
47053;SDS011;32811;52.382;5.270;2024-01-07T04:02:34;11.95;;;8.20;;
47053;SDS011;32811;52.382;5.270;2024-01-07T04:05:01;10.77;;;7.47;;
47053;SDS011;32811;52.382;5.270;2024-01-07T04:07:27;8.55;;;7.05;;
47053;SDS011;32811;52.382;5.270;2024-01-07T04:09:54;11.35;;;7.72;;
47053;SDS011;32811;52.382;5.270;2024-01-07T04:12:21;10.75;;;8.43;;
47053;SDS011;32811;52.382;5.270;2024-01-07T04:14:47;10.57;;;7.53;;
47053;SDS011;32811;52.382;5.270;2024-01-07T04:17:14;12.65;;;8.05;;
47053;SDS011;32811;52.382;5.270;2024-01-07T04:19:41;14.35;;;8.55;;
47053;SDS011;32811;52.382;5.270;2024-01-07T04:22:07;11.82;;;8.75;;
47053;SDS011;32811;52.382;5.270;2024-01-07T04:24:34;12.55;;;9.48;;
47053;SDS011;32811;52.382;5.270;2024-01-07T04:27:01;11.75;;;8.95;;
47053;SDS011;32811;52.382;5.270;2024-01-07T04:29:27;12.35;;;8.75;;
47053;SDS011;32811;52.382;5.270;2024-01-07T04:31:54;14.02;;;8.40;;
47053;SDS011;32811;52.382;5.270;2024-01-07T04:34:21;13.63;;;9.60;;
47053;SDS011;32811;52.382;5.270;2024-01-07T04:36:49;13.35;;;8.77;;
47053;SDS011;32811;52.382;5.270;2024-01-07T04:39:15;12.52;;;7.40;;
47053;SDS011;32811;52.382;5.270;2024-01-07T04:41:42;13.15;;;8.50;;
47053;SDS011;32811;52.382;5.270;2024-01-07T04:44:09;12.10;;;8.20;;
47053;SDS011;32811;52.382;5.270;2024-01-07T04:46:39;10.70;;;7.78;;
47053;SDS011;32811;52.382;5.270;2024-01-07T04:49:08;11.85;;;8.45;;
47053;SDS011;32811;52.382;5.270;2024-01-07T04:51:35;10.95;;;8.45;;
47053;SDS011;32811;52.382;5.270;2024-01-07T04:54:04;11.43;;;8.68;;
47053;SDS011;32811;52.382;5.270;2024-01-07T04:56:32;10.68;;;8.15;;
47053;SDS011;32811;52.382;5.270;2024-01-07T04:58:59;12.07;;;9.05;;
47053;SDS011;32811;52.382;5.270;2024-01-07T05:01:26;10.52;;;8.02;;
47053;SDS011;32811;52.382;5.270;2024-01-07T05:03:52;11.10;;;8.30;;
47053;SDS011;32811;52.382;5.270;2024-01-07T05:06:19;11.55;;;8.63;;
47053;SDS011;32811;52.382;5.270;2024-01-07T05:08:46;12.80;;;8.35;;
47053;SDS011;32811;52.382;5.270;2024-01-07T05:11:13;11.05;;;8.88;;
47053;SDS011;32811;52.382;5.270;2024-01-07T05:13:39;11.82;;;8.90;;
47053;SDS011;32811;52.382;5.270;2024-01-07T05:16:06;11.15;;;7.90;;
47053;SDS011;32811;52.382;5.270;2024-01-07T05:18:33;9.75;;;8.75;;
47053;SDS011;32811;52.382;5.270;2024-01-07T05:21:01;11.98;;;8.57;;
47053;SDS011;32811;52.382;5.270;2024-01-07T05:23:27;10.20;;;7.15;;
47053;SDS011;32811;52.382;5.270;2024-01-07T05:25:54;9.60;;;7.10;;
47053;SDS011;32811;52.382;5.270;2024-01-07T05:28:20;13.63;;;8.07;;
47053;SDS011;32811;52.382;5.270;2024-01-07T05:30:48;8.60;;;6.75;;
47053;SDS011;32811;52.382;5.270;2024-01-07T05:33:15;10.07;;;7.53;;
47053;SDS011;32811;52.382;5.270;2024-01-07T05:35:42;10.18;;;7.70;;
47053;SDS011;32811;52.382;5.270;2024-01-07T05:38:09;7.30;;;5.78;;
47053;SDS011;32811;52.382;5.270;2024-01-07T05:40:37;12.55;;;7.78;;
47053;SDS011;32811;52.382;5.270;2024-01-07T05:43:03;9.50;;;7.57;;
47053;SDS011;32811;52.382;5.270;2024-01-07T05:45:30;11.88;;;7.00;;
47053;SDS011;32811;52.382;5.270;2024-01-07T05:47:57;8.95;;;6.63;;
47053;SDS011;32811;52.382;5.270;2024-01-07T05:50:23;9.18;;;6.32;;
47053;SDS011;32811;52.382;5.270;2024-01-07T05:52:50;9.23;;;7.07;;
47053;SDS011;32811;52.382;5.270;2024-01-07T05:55:17;9.85;;;6.05;;
47053;SDS011;32811;52.382;5.270;2024-01-07T05:57:44;7.55;;;5.68;;
47053;SDS011;32811;52.382;5.270;2024-01-07T06:00:10;8.85;;;6.65;;
47053;SDS011;32811;52.382;5.270;2024-01-07T06:02:38;10.27;;;6.63;;
47053;SDS011;32811;52.382;5.270;2024-01-07T06:05:06;7.60;;;6.80;;
47053;SDS011;32811;52.382;5.270;2024-01-07T06:07:33;11.45;;;6.07;;
47053;SDS011;32811;52.382;5.270;2024-01-07T06:10:00;8.05;;;6.60;;
47053;SDS011;32811;52.382;5.270;2024-01-07T06:12:27;6.93;;;5.30;;
47053;SDS011;32811;52.382;5.270;2024-01-07T06:14:53;7.40;;;5.47;;
47053;SDS011;32811;52.382;5.270;2024-01-07T06:17:20;6.78;;;5.45;;
47053;SDS011;32811;52.382;5.270;2024-01-07T06:19:47;7.78;;;5.60;;
47053;SDS011;32811;52.382;5.270;2024-01-07T06:22:13;7.72;;;5.53;;
47053;SDS011;32811;52.382;5.270;2024-01-07T06:24:40;7.45;;;5.15;;
47053;SDS011;32811;52.382;5.270;2024-01-07T06:27:07;8.05;;;5.80;;
47053;SDS011;32811;52.382;5.270;2024-01-07T06:29:34;7.90;;;5.28;;
47053;SDS011;32811;52.382;5.270;2024-01-07T06:32:00;8.75;;;5.53;;
47053;SDS011;32811;52.382;5.270;2024-01-07T06:34:27;10.18;;;6.53;;
47053;SDS011;32811;52.382;5.270;2024-01-07T06:36:54;6.00;;;4.75;;
47053;SDS011;32811;52.382;5.270;2024-01-07T06:39:20;6.57;;;5.15;;
47053;SDS011;32811;52.382;5.270;2024-01-07T06:41:47;6.32;;;5.30;;
47053;SDS011;32811;52.382;5.270;2024-01-07T06:44:14;6.65;;;5.45;;
47053;SDS011;32811;52.382;5.270;2024-01-07T06:46:40;7.20;;;5.65;;
47053;SDS011;32811;52.382;5.270;2024-01-07T06:49:07;13.02;;;5.05;;
47053;SDS011;32811;52.382;5.270;2024-01-07T06:51:35;6.25;;;4.32;;
47053;SDS011;32811;52.382;5.270;2024-01-07T06:54:02;8.50;;;5.10;;
47053;SDS011;32811;52.382;5.270;2024-01-07T06:56:28;5.57;;;4.30;;
47053;SDS011;32811;52.382;5.270;2024-01-07T06:58:55;8.48;;;4.68;;
47053;SDS011;32811;52.382;5.270;2024-01-07T07:01:22;9.30;;;4.40;;
47053;SDS011;32811;52.382;5.270;2024-01-07T07:03:50;6.22;;;4.43;;
47053;SDS011;32811;52.382;5.270;2024-01-07T07:06:16;8.15;;;4.55;;
47053;SDS011;32811;52.382;5.270;2024-01-07T07:08:43;6.28;;;4.32;;
47053;SDS011;32811;52.382;5.270;2024-01-07T07:11:10;7.97;;;5.45;;
47053;SDS011;32811;52.382;5.270;2024-01-07T07:13:37;7.03;;;4.65;;
47053;SDS011;32811;52.382;5.270;2024-01-07T07:16:04;5.95;;;4.88;;
47053;SDS011;32811;52.382;5.270;2024-01-07T07:18:32;7.10;;;5.10;;
47053;SDS011;32811;52.382;5.270;2024-01-07T07:20:59;6.53;;;5.72;;
47053;SDS011;32811;52.382;5.270;2024-01-07T07:23:26;7.82;;;4.57;;
47053;SDS011;32811;52.382;5.270;2024-01-07T07:25:53;5.53;;;4.50;;
47053;SDS011;32811;52.382;5.270;2024-01-07T07:28:19;6.10;;;4.80;;
47053;SDS011;32811;52.382;5.270;2024-01-07T07:30:46;5.65;;;4.75;;
47053;SDS011;32811;52.382;5.270;2024-01-07T07:33:19;5.72;;;4.45;;
47053;SDS011;32811;52.382;5.270;2024-01-07T07:35:46;7.47;;;3.97;;
47053;SDS011;32811;52.382;5.270;2024-01-07T07:38:13;6.13;;;4.72;;
47053;SDS011;32811;52.382;5.270;2024-01-07T07:40:40;9.05;;;4.65;;
47053;SDS011;32811;52.382;5.270;2024-01-07T07:43:08;5.57;;;4.03;;
47053;SDS011;32811;52.382;5.270;2024-01-07T07:45:35;6.50;;;3.33;;
47053;SDS011;32811;52.382;5.270;2024-01-07T07:48:02;5.32;;;3.47;;
47053;SDS011;32811;52.382;5.270;2024-01-07T07:50:29;7.85;;;4.10;;
47053;SDS011;32811;52.382;5.270;2024-01-07T07:52:56;5.68;;;3.78;;
47053;SDS011;32811;52.382;5.270;2024-01-07T07:55:22;8.35;;;4.88;;
47053;SDS011;32811;52.382;5.270;2024-01-07T07:57:49;6.53;;;4.00;;
47053;SDS011;32811;52.382;5.270;2024-01-07T08:00:18;3.92;;;3.30;;
47053;SDS011;32811;52.382;5.270;2024-01-07T08:02:45;6.82;;;4.03;;
47053;SDS011;32811;52.382;5.270;2024-01-07T08:05:11;5.22;;;3.20;;
47053;SDS011;32811;52.382;5.270;2024-01-07T08:07:38;4.10;;;3.33;;
47053;SDS011;32811;52.382;5.270;2024-01-07T08:10:08;5.18;;;3.38;;
47053;SDS011;32811;52.382;5.270;2024-01-07T08:12:35;4.40;;;3.33;;
47053;SDS011;32811;52.382;5.270;2024-01-07T08:15:01;6.63;;;3.42;;
47053;SDS011;32811;52.382;5.270;2024-01-07T08:17:28;7.05;;;3.65;;
47053;SDS011;32811;52.382;5.270;2024-01-07T08:19:55;4.13;;;3.42;;
47053;SDS011;32811;52.382;5.270;2024-01-07T08:22:22;6.70;;;3.08;;
47053;SDS011;32811;52.382;5.270;2024-01-07T08:24:51;6.80;;;3.08;;
47053;SDS011;32811;52.382;5.270;2024-01-07T08:27:17;5.65;;;2.95;;
47053;SDS011;32811;52.382;5.270;2024-01-07T08:29:44;5.28;;;2.97;;
47053;SDS011;32811;52.382;5.270;2024-01-07T08:32:11;4.65;;;2.63;;
47053;SDS011;32811;52.382;5.270;2024-01-07T08:34:39;4.45;;;1.90;;
47053;SDS011;32811;52.382;5.270;2024-01-07T08:37:08;3.33;;;2.05;;
47053;SDS011;32811;52.382;5.270;2024-01-07T08:39:36;3.47;;;2.42;;
47053;SDS011;32811;52.382;5.270;2024-01-07T08:42:03;3.50;;;2.10;;
47053;SDS011;32811;52.382;5.270;2024-01-07T08:44:30;4.80;;;2.20;;
47053;SDS011;32811;52.382;5.270;2024-01-07T08:46:57;3.83;;;2.38;;
47053;SDS011;32811;52.382;5.270;2024-01-07T08:49:30;3.28;;;2.17;;
47053;SDS011;32811;52.382;5.270;2024-01-07T08:51:59;4.25;;;2.42;;
47053;SDS011;32811;52.382;5.270;2024-01-07T08:54:26;2.95;;;1.85;;
47053;SDS011;32811;52.382;5.270;2024-01-07T08:56:52;5.70;;;2.20;;
47053;SDS011;32811;52.382;5.270;2024-01-07T08:59:19;2.47;;;1.65;;
47053;SDS011;32811;52.382;5.270;2024-01-07T09:01:46;3.13;;;2.17;;
47053;SDS011;32811;52.382;5.270;2024-01-07T09:04:12;8.38;;;2.20;;
47053;SDS011;32811;52.382;5.270;2024-01-07T09:06:39;3.83;;;1.90;;
47053;SDS011;32811;52.382;5.270;2024-01-07T09:09:07;5.45;;;1.90;;
47053;SDS011;32811;52.382;5.270;2024-01-07T09:11:34;2.85;;;1.80;;
47053;SDS011;32811;52.382;5.270;2024-01-07T09:14:02;3.42;;;1.63;;
47053;SDS011;32811;52.382;5.270;2024-01-07T09:16:29;3.97;;;1.23;;
47053;SDS011;32811;52.382;5.270;2024-01-07T09:18:56;2.55;;;1.70;;
47053;SDS011;32811;52.382;5.270;2024-01-07T09:21:23;5.75;;;1.65;;
47053;SDS011;32811;52.382;5.270;2024-01-07T09:23:49;5.78;;;1.67;;
47053;SDS011;32811;52.382;5.270;2024-01-07T09:26:16;2.60;;;1.52;;
47053;SDS011;32811;52.382;5.270;2024-01-07T09:28:42;2.60;;;1.67;;
47053;SDS011;32811;52.382;5.270;2024-01-07T09:31:09;2.85;;;1.15;;
47053;SDS011;32811;52.382;5.270;2024-01-07T09:33:36;7.28;;;1.38;;
47053;SDS011;32811;52.382;5.270;2024-01-07T09:36:03;2.58;;;1.42;;
47053;SDS011;32811;52.382;5.270;2024-01-07T09:38:45;4.68;;;1.83;;
47053;SDS011;32811;52.382;5.270;2024-01-07T09:41:12;2.33;;;1.23;;
47053;SDS011;32811;52.382;5.270;2024-01-07T09:43:39;2.88;;;1.83;;
47053;SDS011;32811;52.382;5.270;2024-01-07T09:46:06;2.20;;;1.58;;
47053;SDS011;32811;52.382;5.270;2024-01-07T09:48:32;3.35;;;1.63;;
47053;SDS011;32811;52.382;5.270;2024-01-07T09:51:00;4.95;;;2.08;;
47053;SDS011;32811;52.382;5.270;2024-01-07T09:53:29;4.00;;;1.50;;
47053;SDS011;32811;52.382;5.270;2024-01-07T09:58:27;2.42;;;1.08;;
47053;SDS011;32811;52.382;5.270;2024-01-07T10:00:54;6.43;;;1.50;;
47053;SDS011;32811;52.382;5.270;2024-01-07T10:03:21;2.83;;;1.30;;
47053;SDS011;32811;52.382;5.270;2024-01-07T10:05:48;2.28;;;1.38;;
47053;SDS011;32811;52.382;5.270;2024-01-07T10:08:14;1.75;;;1.20;;
47053;SDS011;32811;52.382;5.270;2024-01-07T10:10:41;2.53;;;1.52;;
47053;SDS011;32811;52.382;5.270;2024-01-07T10:13:08;2.22;;;1.20;;
47053;SDS011;32811;52.382;5.270;2024-01-07T10:15:35;3.67;;;1.23;;
47053;SDS011;32811;52.382;5.270;2024-01-07T10:18:04;2.05;;;1.23;;
47053;SDS011;32811;52.382;5.270;2024-01-07T10:20:33;4.03;;;1.40;;
47053;SDS011;32811;52.382;5.270;2024-01-07T10:23:01;2.08;;;1.23;;
47053;SDS011;32811;52.382;5.270;2024-01-07T10:25:31;2.17;;;1.40;;
47053;SDS011;32811;52.382;5.270;2024-01-07T10:28:01;2.78;;;1.40;;
47053;SDS011;32811;52.382;5.270;2024-01-07T10:30:29;2.58;;;1.25;;
47053;SDS011;32811;52.382;5.270;2024-01-07T10:32:59;2.75;;;0.95;;
47053;SDS011;32811;52.382;5.270;2024-01-07T10:35:32;3.70;;;1.38;;
47053;SDS011;32811;52.382;5.270;2024-01-07T10:38:03;2.40;;;1.20;;
47053;SDS011;32811;52.382;5.270;2024-01-07T10:40:30;2.95;;;1.05;;
47053;SDS011;32811;52.382;5.270;2024-01-07T10:42:59;5.97;;;1.00;;
47053;SDS011;32811;52.382;5.270;2024-01-07T10:45:26;1.42;;;0.93;;
47053;SDS011;32811;52.382;5.270;2024-01-07T10:47:54;1.05;;;0.88;;
47053;SDS011;32811;52.382;5.270;2024-01-07T10:50:24;1.08;;;0.90;;
47053;SDS011;32811;52.382;5.270;2024-01-07T10:52:57;2.63;;;0.80;;
47053;SDS011;32811;52.382;5.270;2024-01-07T10:55:25;2.40;;;1.10;;
47053;SDS011;32811;52.382;5.270;2024-01-07T10:57:56;2.60;;;1.10;;
47053;SDS011;32811;52.382;5.270;2024-01-07T11:00:25;1.20;;;0.90;;
47053;SDS011;32811;52.382;5.270;2024-01-07T11:05:45;1.30;;;0.93;;
47053;SDS011;32811;52.382;5.270;2024-01-07T11:08:34;1.38;;;0.80;;
47053;SDS011;32811;52.382;5.270;2024-01-07T11:11:09;1.52;;;0.95;;
47053;SDS011;32811;52.382;5.270;2024-01-07T11:13:41;0.57;;;0.40;;
47053;SDS011;32811;52.382;5.270;2024-01-07T11:16:08;3.38;;;0.80;;
47053;SDS011;32811;52.382;5.270;2024-01-07T11:18:39;4.88;;;1.15;;
47053;SDS011;32811;52.382;5.270;2024-01-07T11:21:28;2.28;;;0.82;;
47053;SDS011;32811;52.382;5.270;2024-01-07T11:23:56;0.95;;;0.85;;
47053;SDS011;32811;52.382;5.270;2024-01-07T11:26:22;7.05;;;0.98;;
47053;SDS011;32811;52.382;5.270;2024-01-07T11:28:50;1.50;;;0.70;;
47053;SDS011;32811;52.382;5.270;2024-01-07T11:34:06;1.50;;;0.90;;
47053;SDS011;32811;52.382;5.270;2024-01-07T11:36:36;1.98;;;1.00;;
47053;SDS011;32811;52.382;5.270;2024-01-07T11:39:04;3.28;;;1.73;;
47053;SDS011;32811;52.382;5.270;2024-01-07T11:41:36;1.38;;;1.08;;
47053;SDS011;32811;52.382;5.270;2024-01-07T11:44:05;4.18;;;0.80;;
47053;SDS011;32811;52.382;5.270;2024-01-07T11:46:33;1.13;;;1.02;;
47053;SDS011;32811;52.382;5.270;2024-01-07T11:49:01;1.40;;;0.80;;
47053;SDS011;32811;52.382;5.270;2024-01-07T11:51:29;1.15;;;0.75;;
47053;SDS011;32811;52.382;5.270;2024-01-07T11:53:58;3.50;;;0.93;;
47053;SDS011;32811;52.382;5.270;2024-01-07T11:56:26;2.00;;;0.80;;
47053;SDS011;32811;52.382;5.270;2024-01-07T11:58:55;1.63;;;0.80;;
47053;SDS011;32811;52.382;5.270;2024-01-07T12:01:23;4.70;;;1.00;;
47053;SDS011;32811;52.382;5.270;2024-01-07T12:03:52;1.80;;;0.90;;
47053;SDS011;32811;52.382;5.270;2024-01-07T12:06:19;2.30;;;0.80;;
47053;SDS011;32811;52.382;5.270;2024-01-07T12:08:46;1.25;;;0.70;;
47053;SDS011;32811;52.382;5.270;2024-01-07T12:11:13;1.73;;;0.70;;
47053;SDS011;32811;52.382;5.270;2024-01-07T12:13:41;0.73;;;0.60;;
47053;SDS011;32811;52.382;5.270;2024-01-07T12:16:08;2.13;;;0.77;;
47053;SDS011;32811;52.382;5.270;2024-01-07T12:18:36;1.90;;;0.80;;
47053;SDS011;32811;52.382;5.270;2024-01-07T12:21:04;5.45;;;0.93;;
47053;SDS011;32811;52.382;5.270;2024-01-07T12:23:34;3.20;;;0.98;;
47053;SDS011;32811;52.382;5.270;2024-01-07T12:26:10;1.05;;;0.80;;
47053;SDS011;32811;52.382;5.270;2024-01-07T12:28:37;0.80;;;0.70;;
47053;SDS011;32811;52.382;5.270;2024-01-07T12:31:05;1.45;;;0.80;;
47053;SDS011;32811;52.382;5.270;2024-01-07T12:33:33;2.00;;;1.48;;
47053;SDS011;32811;52.382;5.270;2024-01-07T12:36:00;3.60;;;1.25;;
47053;SDS011;32811;52.382;5.270;2024-01-07T12:38:28;1.77;;;0.75;;
47053;SDS011;32811;52.382;5.270;2024-01-07T12:40:55;2.85;;;0.75;;
47053;SDS011;32811;52.382;5.270;2024-01-07T12:43:22;0.63;;;0.63;;
47053;SDS011;32811;52.382;5.270;2024-01-07T12:45:49;1.13;;;0.63;;
47053;SDS011;32811;52.382;5.270;2024-01-07T12:48:16;1.65;;;0.98;;
47053;SDS011;32811;52.382;5.270;2024-01-07T12:50:43;1.10;;;0.68;;
47053;SDS011;32811;52.382;5.270;2024-01-07T12:53:10;1.88;;;0.80;;
47053;SDS011;32811;52.382;5.270;2024-01-07T12:55:36;0.32;;;0.32;;
47053;SDS011;32811;52.382;5.270;2024-01-07T12:58:03;1.05;;;0.70;;
47053;SDS011;32811;52.382;5.270;2024-01-07T13:00:30;0.98;;;0.60;;
47053;SDS011;32811;52.382;5.270;2024-01-07T13:02:57;0.70;;;0.50;;
47053;SDS011;32811;52.382;5.270;2024-01-07T13:05:27;0.88;;;0.68;;
47053;SDS011;32811;52.382;5.270;2024-01-07T13:07:54;1.42;;;0.80;;
47053;SDS011;32811;52.382;5.270;2024-01-07T13:10:21;1.55;;;0.70;;
47053;SDS011;32811;52.382;5.270;2024-01-07T13:12:48;3.78;;;0.52;;
47053;SDS011;32811;52.382;5.270;2024-01-07T13:15:20;0.65;;;0.50;;
47053;SDS011;32811;52.382;5.270;2024-01-07T13:17:47;1.58;;;0.60;;
47053;SDS011;32811;52.382;5.270;2024-01-07T13:20:14;4.03;;;0.52;;
47053;SDS011;32811;52.382;5.270;2024-01-07T13:22:41;2.22;;;0.60;;
47053;SDS011;32811;52.382;5.270;2024-01-07T13:25:07;1.67;;;0.60;;
47053;SDS011;32811;52.382;5.270;2024-01-07T13:27:34;1.13;;;0.68;;
47053;SDS011;32811;52.382;5.270;2024-01-07T13:30:03;1.88;;;0.98;;
47053;SDS011;32811;52.382;5.270;2024-01-07T13:32:31;2.47;;;0.60;;
47053;SDS011;32811;52.382;5.270;2024-01-07T13:35:03;2.15;;;0.90;;
47053;SDS011;32811;52.382;5.270;2024-01-07T13:37:31;2.60;;;0.63;;
47053;SDS011;32811;52.382;5.270;2024-01-07T13:39:57;0.82;;;0.80;;
47053;SDS011;32811;52.382;5.270;2024-01-07T13:42:24;1.35;;;0.77;;
47053;SDS011;32811;52.382;5.270;2024-01-07T13:44:51;2.72;;;0.77;;
47053;SDS011;32811;52.382;5.270;2024-01-07T13:47:17;2.17;;;1.33;;
47053;SDS011;32811;52.382;5.270;2024-01-07T13:49:44;2.55;;;0.50;;
47053;SDS011;32811;52.382;5.270;2024-01-07T13:52:16;0.80;;;0.60;;
47053;SDS011;32811;52.382;5.270;2024-01-07T13:54:43;3.97;;;1.05;;
47053;SDS011;32811;52.382;5.270;2024-01-07T13:57:10;2.80;;;0.70;;
47053;SDS011;32811;52.382;5.270;2024-01-07T13:59:39;0.90;;;0.60;;
47053;SDS011;32811;52.382;5.270;2024-01-07T14:02:06;2.70;;;0.70;;
47053;SDS011;32811;52.382;5.270;2024-01-07T14:04:34;2.25;;;0.73;;
47053;SDS011;32811;52.382;5.270;2024-01-07T14:07:01;0.98;;;0.70;;
47053;SDS011;32811;52.382;5.270;2024-01-07T14:09:27;1.88;;;0.65;;
47053;SDS011;32811;52.382;5.270;2024-01-07T14:11:58;1.10;;;0.90;;
47053;SDS011;32811;52.382;5.270;2024-01-07T14:14:25;1.55;;;0.77;;
47053;SDS011;32811;52.382;5.270;2024-01-07T14:16:52;1.70;;;0.57;;
47053;SDS011;32811;52.382;5.270;2024-01-07T14:19:19;1.45;;;0.80;;
47053;SDS011;32811;52.382;5.270;2024-01-07T14:21:45;5.00;;;0.60;;
47053;SDS011;32811;52.382;5.270;2024-01-07T14:24:12;2.03;;;0.98;;
47053;SDS011;32811;52.382;5.270;2024-01-07T14:26:38;1.20;;;0.60;;
47053;SDS011;32811;52.382;5.270;2024-01-07T14:29:05;1.95;;;1.35;;
47053;SDS011;32811;52.382;5.270;2024-01-07T14:31:43;1.27;;;0.60;;
47053;SDS011;32811;52.382;5.270;2024-01-07T14:34:11;1.77;;;0.80;;
47053;SDS011;32811;52.382;5.270;2024-01-07T14:36:41;1.70;;;0.80;;
47053;SDS011;32811;52.382;5.270;2024-01-07T14:39:10;1.48;;;0.70;;
47053;SDS011;32811;52.382;5.270;2024-01-07T14:41:37;1.42;;;1.13;;
47053;SDS011;32811;52.382;5.270;2024-01-07T14:44:03;2.35;;;1.10;;
47053;SDS011;32811;52.382;5.270;2024-01-07T14:46:36;3.63;;;0.82;;
47053;SDS011;32811;52.382;5.270;2024-01-07T14:49:03;3.08;;;0.95;;
47053;SDS011;32811;52.382;5.270;2024-01-07T14:51:31;1.48;;;0.68;;
47053;SDS011;32811;52.382;5.270;2024-01-07T14:53:58;0.82;;;0.65;;
47053;SDS011;32811;52.382;5.270;2024-01-07T14:56:25;2.75;;;0.90;;